This is the latest recevied weather packets stored in our database for station/object AA7F. If no packets are shown the sender has not sent any weather packets the latest 10 day(s).
| Time | Temp. | Humidity | Pressure | Rain* | Wind** | Luminosity | Snow |
|---|---|---|---|---|---|---|---|
| 1777714029 | 11.11° C | 68% | 1014.9 hPa | 0 mm | - | 0 W/m² | - |
| 1777713727 | 11.67° C | 68% | 1015 hPa | 0 mm | - | 0 W/m² | - |
| 1777713423 | 12.22° C | 66% | 1015.1 hPa | 0 mm | - | 0 W/m² | - |
| 1777713120 | 12.22° C | 65% | 1015 hPa | 0 mm | - | 0 W/m² | - |
| 1777712817 | 12.22° C | 65% | 1015 hPa | 0 mm | - | 0 W/m² | - |
| 1777712514 | 12.22° C | 65% | 1015 hPa | 0 mm | - | 0 W/m² | - |
| 1777712211 | 12.22° C | 65% | 1014.9 hPa | 0 mm | - | 0 W/m² | - |
| 1777711908 | 12.22° C | 65% | 1014.9 hPa | 0 mm | - | 0 W/m² | - |
| 1777711605 | 12.78° C | 64% | 1014.9 hPa | 0 mm | - | 0 W/m² | - |
| 1777711304 | 12.78° C | 63% | 1014.9 hPa | 0 mm | - | 0 W/m² | - |
| 1777711002 | 12.78° C | 64% | 1014.8 hPa | 0 mm | - | 0 W/m² | - |
| 1777710699 | 12.78° C | 64% | 1014.9 hPa | 0 mm | - | 0 W/m² | - |
| 1777710396 | 12.22° C | 65% | 1014.8 hPa | 0 mm | - | 0 W/m² | - |
| 1777710093 | 10.56° C | 71% | 1014.9 hPa | 0 mm | - | 0 W/m² | - |
| 1777709790 | 12.78° C | 69% | 1015 hPa | 0 mm | - | 0 W/m² | - |
| 1777709487 | 13.33° C | 60% | 1015 hPa | 0 mm | - | 0 W/m² | - |
| 1777709185 | 13.33° C | 61% | 1014.9 hPa | 0 mm | - | 0 W/m² | - |
| 1777708882 | 13.33° C | 62% | 1015 hPa | 0 mm | - | 0 W/m² | - |
| 1777708580 | 13.33° C | 61% | 1014.9 hPa | 0 mm | - | 0 W/m² | - |
| 1777708278 | 13.89° C | 60% | 1014.8 hPa | 0 mm | - | 0 W/m² | - |
| 1777707975 | 13.33° C | 60% | 1015 hPa | 0 mm | - | 0 W/m² | - |
| 1777707672 | 13.89° C | 60% | 1014.8 hPa | 0 mm | - | 0 W/m² | - |
| 1777707368 | 13.89° C | 58% | 1014.8 hPa | 0 mm | - | 0 W/m² | - |
| 1777707065 | 14.44° C | 57% | 1014.5 hPa | 0 mm | - | 0 W/m² | - |
| 1777706762 | 13.89° C | 57% | 1014.6 hPa | 0 mm | - | 0 W/m² | - |
* Rain latest hour (hover to see other rain measurements)
** Current wind speed in m/s (hover to see current wind gust speed)